Time;durP1;ratioP1;P1;durP2;ratioP2;P2;SDS_P1;SDS_P2;PMS_P1;PMS_P2;Temp;Humidity;BMP_temperature;BMP_pressure;BME280_temperature;BME280_humidity;BME280_pressure;Samples;Min_cycle;Max_cycle;Signal;HPM_P1;HPM_P2
2021/11/17 02:26:01;;;;;;;;;;;;;;;0.47;100.00;100878.03;4974860;28;20428;-66
2021/11/17 02:28:53;;;;;;;8.55;4.97;;;;;;;0.57;100.00;100886.25;4976338;28;19928;-63
2021/11/17 02:31:57;;;;;;;7.57;4.97;;;;;;;0.59;100.00;100883.72;4968128;28;20423;-67
2021/11/17 02:35:05;;;;;;;10.50;5.20;;;;;;;0.61;100.00;100887.25;4957525;28;20443;-63
2021/11/17 02:38:12;;;;;;;9.48;5.60;;;;;;;0.48;100.00;100862.44;4933312;29;20574;-63
2021/11/17 02:41:26;;;;;;;9.23;4.78;;;;;;;0.53;100.00;100880.88;4929380;28;20062;-63
2021/11/17 02:44:17;;;;;;;7.85;4.97;;;;;;;0.57;100.00;100872.31;4913751;29;20078;-64
2021/11/17 02:47:24;;;;;;;9.80;5.07;;;;;;;0.66;100.00;100876.16;4930328;28;20058;-70
2021/11/17 02:50:19;;;;;;;8.32;4.38;;;;;;;0.69;100.00;100877.97;4936798;28;20071;-65
2021/11/17 02:53:20;;;;;;;9.38;4.47;;;;;;;0.64;100.00;100871.72;4931874;28;20062;-64
2021/11/17 02:56:23;;;;;;;7.43;4.15;;;;;;;0.67;100.00;100866.63;4928934;29;20515;-62
2021/11/17 02:59:21;;;;;;;12.00;4.82;;;;;;;0.77;100.00;100869.63;4905134;29;20447;-69
2021/11/17 03:02:35;;;;;;;10.88;5.10;;;;;;;0.82;100.00;100869.78;4937633;29;20475;-64
2021/11/17 03:05:30;;;;;;;7.60;4.50;;;;;;;0.81;100.00;100868.00;4939669;28;20188;-63
2021/11/17 03:08:38;;;;;;;8.85;4.70;;;;;;;0.80;100.00;100869.72;4947882;28;20066;-63
2021/11/17 03:11:23;;;;;;;11.52;5.43;;;;;;;0.86;100.00;100871.69;4931320;29;20131;-65
2021/11/17 03:14:29;;;;;;;7.25;4.57;;;;;;;0.93;100.00;100864.09;4945766;28;20077;-62
2021/11/17 03:17:24;;;;;;;9.93;4.80;;;;;;;1.07;100.00;100869.81;4954162;28;20636;-64
2021/11/17 03:20:38;;;;;;;6.93;4.30;;;;;;;1.07;100.00;100859.38;4955371;28;20054;-68
2021/11/17 03:23:25;;;;;;;8.02;4.72;;;;;;;0.92;100.00;100854.50;4958310;28;20058;-68
2021/11/17 03:26:19;;;;;;;8.43;4.50;;;;;;;0.92;100.00;100866.66;4964780;28;20050;-69
2021/11/17 03:29:42;;;;;;;9.50;5.53;;;;;;;1.00;100.00;100857.38;4953269;28;20046;-63
2021/11/17 03:32:44;;;;;;;7.68;5.00;;;;;;;0.97;100.00;100852.94;4960917;28;20097;-65
2021/11/17 03:36:01;;;;;;;9.55;4.57;;;;;;;0.87;100.00;100848.22;4949544;28;20883;-64
2021/11/17 03:39:04;;;;;;;10.10;4.57;;;;;;;0.88;100.00;100846.50;4949260;28;20456;-63
2021/11/17 03:42:01;;;;;;;8.23;4.68;;;;;;;0.90;100.00;100847.47;4950333;28;20057;-65
2021/11/17 03:44:49;;;;;;;9.80;4.55;;;;;;;0.92;100.00;100849.28;4947715;28;20647;-71
2021/11/17 03:47:46;;;;;;;8.43;4.88;;;;;;;1.02;100.00;100846.16;4955459;28;20763;-63
2021/11/17 03:50:43;;;;;;;7.95;4.68;;;;;;;0.87;100.00;100855.19;4967213;28;20057;-65
2021/11/17 03:54:03;;;;;;;6.95;3.85;;;;;;;0.83;100.00;100846.31;4963288;28;20070;-64
2021/11/17 03:56:48;;;;;;;8.38;4.60;;;;;;;0.73;100.00;100844.25;4965245;28;20518;-64
2021/11/17 03:59:55;;;;;;;7.82;4.15;;;;;;;0.69;100.00;100850.19;4947578;28;20085;-67
2021/11/17 04:02:49;;;;;;;8.23;4.53;;;;;;;0.88;100.00;100850.00;4949845;28;20485;-65
2021/11/17 04:06:05;;;;;;;6.77;4.63;;;;;;;1.00;100.00;100846.94;4967612;28;20139;-66
2021/11/17 04:09:14;;;;;;;6.90;4.60;;;;;;;1.05;100.00;100850.56;4942964;29;20159;-63
2021/11/17 04:12:08;;;;;;;7.15;4.45;;;;;;;0.93;100.00;100855.38;4944541;28;20530;-65
2021/11/17 04:15:12;;;;;;;12.50;4.93;;;;;;;0.89;100.00;100850.88;4963560;28;20411;-65
2021/11/17 04:18:12;;;;;;;8.57;4.30;;;;;;;0.85;100.00;100844.66;4961088;28;20205;-67
2021/11/17 04:21:30;;;;;;;7.72;4.72;;;;;;;0.92;100.00;100854.50;4976819;28;20052;-65
2021/11/17 04:24:44;;;;;;;8.90;4.60;;;;;;;0.77;100.00;100855.66;4960459;28;20054;-63
2021/11/17 04:27:44;;;;;;;9.40;5.03;;;;;;;0.70;100.00;100857.16;4964509;28;20101;-72
2021/11/17 04:30:32;;;;;;;8.43;5.25;;;;;;;0.69;100.00;100851.88;4948632;28;20061;-69
2021/11/17 04:33:39;;;;;;;9.40;5.57;;;;;;;0.93;100.00;100857.97;4963530;28;20058;-64
2021/11/17 04:36:43;;;;;;;8.13;4.80;;;;;;;1.02;100.00;100860.94;4949492;28;20314;-64
2021/11/17 04:39:54;;;;;;;7.70;4.22;;;;;;;1.01;100.00;100860.03;4957079;28;20125;-63
2021/11/17 04:42:58;;;;;;;7.53;4.80;;;;;;;0.93;100.00;100860.59;4892312;29;20188;-73
2021/11/17 04:45:46;;;;;;;11.15;4.57;;;;;;;0.88;100.00;100854.34;4893616;29;20047;-74
2021/11/17 04:48:59;;;;;;;9.13;5.22;;;;;;;0.97;100.00;100860.78;4911856;29;20547;-64
2021/11/17 04:51:57;;;;;;;10.18;4.85;;;;;;;0.83;100.00;100856.75;4902863;29;20091;-64
2021/11/17 04:55:00;;;;;;;11.90;5.13;;;;;;;0.93;100.00;100844.94;4900452;29;20107;-63
2021/11/17 04:58:00;;;;;;;9.60;5.35;;;;;;;1.03;100.00;100860.09;4901269;29;20059;-64
2021/11/17 05:00:55;;;;;;;9.75;5.22;;;;;;;1.11;100.00;100850.81;4910030;29;20115;-70
2021/11/17 05:04:01;;;;;;;16.65;6.07;;;;;;;1.07;100.00;100855.00;4894607;29;20283;-67
2021/11/17 05:07:10;;;;;;;9.27;5.35;;;;;;;1.00;100.00;100854.75;4898798;29;20187;-63
2021/11/17 05:10:19;;;;;;;12.60;5.20;;;;;;;1.03;100.00;100857.50;4897569;29;20087;-70
2021/11/17 05:13:22;;;;;;;13.40;5.78;;;;;;;1.03;100.00;100860.09;4900224;29;20048;-67
2021/11/17 05:16:19;;;;;;;9.00;5.47;;;;;;;1.06;100.00;100857.59;4899616;29;20059;-64
2021/11/17 05:19:21;;;;;;;12.57;5.80;;;;;;;1.03;100.00;100860.97;4923206;28;20067;-64
2021/11/17 05:22:18;;;;;;;7.90;5.28;;;;;;;0.94;100.00;100858.03;4956619;28;20101;-70
2021/11/17 05:25:32;;;;;;;8.23;4.68;;;;;;;0.95;100.00;100858.94;4971053;28;20146;-65
2021/11/17 05:28:39;;;;;;;8.52;4.55;;;;;;;0.84;100.00;100845.50;4899888;29;20167;-64
2021/11/17 05:31:46;;;;;;;8.95;5.22;;;;;;;0.83;100.00;100853.28;4904300;29;20052;-65
2021/11/17 05:34:37;;;;;;;7.82;5.00;;;;;;;0.87;100.00;100852.56;4897356;29;20055;-62
2021/11/17 05:37:35;;;;;;;12.52;5.07;;;;;;;0.96;100.00;100856.38;4901464;29;20865;-66
2021/11/17 05:40:26;;;;;;;8.88;4.88;;;;;;;0.93;100.00;100848.44;4896324;29;21946;-66
2021/11/17 05:43:35;;;;;;;10.27;4.75;;;;;;;0.87;100.00;100853.44;4902206;29;20600;-70
2021/11/17 05:46:20;;;;;;;6.00;4.20;;;;;;;0.87;100.00;100857.78;4894806;29;20060;-65
2021/11/17 05:49:05;;;;;;;;;;;;;;;0.76;100.00;100846.06;4900248;29;20528;-64
2021/11/17 05:52:09;;;;;;;9.38;4.90;;;;;;;0.77;100.00;100850.44;4876844;29;19984;-65
2021/11/17 05:55:08;;;;;;;10.15;4.95;;;;;;;0.82;100.00;100859.34;4886706;29;20047;-67
2021/11/17 05:58:18;;;;;;;9.27;4.70;;;;;;;0.75;100.00;100849.50;4866057;29;20490;-63
2021/11/17 06:01:35;;;;;;;9.00;4.30;;;;;;;0.78;100.00;100850.50;4886082;29;20131;-67
2021/11/17 06:04:57;;;;;;;6.88;4.38;;;;;;;0.74;100.00;100847.75;4908475;29;20091;-65
2021/11/17 06:08:19;;;;;;;7.93;4.45;;;;;;;0.65;100.00;100856.13;4957851;28;20530;-64
2021/11/17 06:11:05;;;;;;;8.10;4.65;;;;;;;0.72;100.00;100852.91;4963778;28;20085;-65
2021/11/17 06:13:50;;;;;;;7.18;4.15;;;;;;;0.64;100.00;100848.22;4948318;29;20574;-66
2021/11/17 06:16:46;;;;;;;8.57;4.68;;;;;;;0.64;100.00;100845.63;4965458;28;20064;-68
2021/11/17 06:19:37;;;;;;;7.03;4.68;;;;;;;0.66;100.00;100851.81;4967508;28;20058;-63
2021/11/17 06:22:28;;;;;;;9.10;4.32;;;;;;;0.78;100.00;100844.41;4968070;28;20054;-65
2021/11/17 06:25:14;;;;;;;9.63;4.30;;;;;;;0.75;100.00;100833.84;4960997;28;20482;-71
2021/11/17 06:28:04;;;;;;;8.73;4.93;;;;;;;0.71;100.00;100842.41;4936673;29;20546;-64
2021/11/17 06:30:52;;;;;;;11.05;5.57;;;;;;;0.83;100.00;100848.94;4948610;28;20058;-65
2021/11/17 06:33:37;;;;;;;7.95;4.78;;;;;;;0.80;100.00;100847.94;4937846;28;20062;-62
2021/11/17 06:36:23;;;;;;;9.32;5.28;;;;;;;0.78;100.00;100832.22;4963799;28;20522;-65
2021/11/17 06:39:07;;;;;;;8.30;5.10;;;;;;;0.79;100.00;100854.88;4953171;28;20054;-66
2021/11/17 06:41:53;;;;;;;9.00;5.15;;;;;;;0.93;100.00;100842.31;4942434;28;20138;-64
2021/11/17 06:44:40;;;;;;;11.88;5.78;;;;;;;0.87;100.00;100844.72;4942808;28;20102;-63
2021/11/17 06:47:26;;;;;;;9.20;5.32;;;;;;;0.87;100.00;100844.72;4966733;28;20475;-63
2021/11/17 06:50:12;;;;;;;7.63;5.18;;;;;;;0.83;100.00;100851.53;4958634;28;20530;-67
2021/11/17 06:52:57;;;;;;;8.88;5.55;;;;;;;0.86;100.00;100845.56;4933290;29;20516;-76
2021/11/17 06:55:41;;;;;;;7.32;5.45;;;;;;;0.80;100.00;100848.84;4952173;28;20553;-62
2021/11/17 06:58:26;;;;;;;8.27;5.03;;;;;;;0.83;100.00;100854.16;4948283;28;20058;-64
2021/11/17 07:01:11;;;;;;;13.85;5.80;;;;;;;0.74;100.00;100838.16;4952263;28;20050;-62
2021/11/17 07:03:58;;;;;;;9.30;5.70;;;;;;;0.80;100.00;100847.94;4962497;28;20908;-67
2021/11/17 07:06:42;;;;;;;12.00;5.80;;;;;;;0.82;100.00;100847.16;4948914;28;20054;-66
2021/11/17 07:09:27;;;;;;;8.45;5.68;;;;;;;0.81;100.00;100855.84;4965932;28;20069;-63
2021/11/17 07:12:13;;;;;;;11.38;5.75;;;;;;;0.89;100.00;100864.81;4970589;28;20049;-77
2021/11/17 07:14:59;;;;;;;11.30;5.32;;;;;;;0.93;100.00;100845.81;4939114;28;20758;-63
2021/11/17 07:17:40;;;;;;;8.60;5.28;;;;;;;0.96;100.00;100856.38;4973039;28;20059;-63
2021/11/17 07:20:25;;;;;;;;;;;;;;;0.99;100.00;100859.09;4964556;28;20042;-65
2021/11/17 07:23:11;;;;;;;10.05;5.43;;;;;;;0.97;100.00;100852.94;4975285;28;20000;-63
2021/11/17 07:25:56;;;;;;;10.13;4.72;;;;;;;0.88;100.00;100852.63;4959000;28;20090;-64
2021/11/17 07:28:41;;;;;;;9.50;4.93;;;;;;;0.91;100.00;100863.16;4977404;28;20069;-63
2021/11/17 07:31:27;;;;;;;7.88;4.72;;;;;;;1.01;100.00;100864.38;4961833;28;20185;-69
2021/11/17 07:34:12;;;;;;;8.90;4.63;;;;;;;1.20;100.00;100864.19;4975141;28;20562;-64
2021/11/17 07:36:57;;;;;;;8.23;4.90;;;;;;;1.37;100.00;100879.59;4961604;28;20070;-66
2021/11/17 07:39:42;;;;;;;7.47;4.53;;;;;;;1.32;100.00;100878.56;4967087;28;20537;-64
2021/11/17 07:42:27;;;;;;;8.55;4.72;;;;;;;1.36;100.00;100884.75;4955674;28;20093;-65
2021/11/17 07:45:15;;;;;;;6.90;4.53;;;;;;;1.18;100.00;100882.41;4960294;28;20057;-64
2021/11/17 07:48:01;;;;;;;8.15;4.28;;;;;;;1.36;100.00;100884.75;4964668;28;20110;-66
2021/11/17 07:50:46;;;;;;;9.55;4.15;;;;;;;1.41;100.00;100878.84;4965980;28;20076;-73
2021/11/17 08:45:28;;;;;;;7.95;3.92;;;;;;;2.16;100.00;100894.44;4946796;28;20055;-67
2021/11/17 08:48:13;;;;;;;8.90;4.38;;;;;;;2.03;100.00;100900.13;4928581;29;20090;-64
2021/11/17 08:51:05;;;;;;;10.98;4.38;;;;;;;2.10;100.00;100896.84;4937818;28;20055;-67
2021/11/17 08:53:50;;;;;;;7.95;4.13;;;;;;;2.26;100.00;100895.59;4940840;28;20143;-66
2021/11/17 08:56:38;;;;;;;11.13;4.47;;;;;;;2.53;100.00;100897.31;4940104;28;20066;-66
2021/11/17 08:59:25;;;;;;;8.18;4.20;;;;;;;2.51;100.00;100900.72;4940680;28;20058;-67
2021/11/17 09:02:11;;;;;;;20.42;5.03;;;;;;;2.70;100.00;100895.19;4941788;28;20122;-66
2021/11/17 09:04:57;;;;;;;10.55;4.60;;;;;;;2.65;100.00;100895.06;4938782;28;20173;-66
2021/11/17 09:07:45;;;;;;;14.55;4.88;;;;;;;2.76;100.00;100890.13;4983270;28;20569;-68
2021/11/17 09:10:33;;;;;;;8.15;4.57;;;;;;;2.64;100.00;100895.00;4955345;28;20054;-65
2021/11/17 09:13:19;;;;;;;14.15;4.80;;;;;;;2.53;100.00;100893.81;4935295;28;20051;-64
2021/11/17 09:16:05;;;;;;;10.50;4.95;;;;;;;2.35;100.00;100904.63;4932666;29;20118;-65
2021/11/17 09:18:52;;;;;;;9.95;5.32;;;;;;;2.10;100.00;100895.97;4931136;28;20050;-66
2021/11/17 09:21:43;;;;;;;9.63;5.15;;;;;;;2.23;100.00;100896.41;4945019;28;20102;-65
2021/11/17 09:24:29;;;;;;;12.57;5.70;;;;;;;2.29;100.00;100896.56;4938092;28;20114;-65
2021/11/17 09:27:15;;;;;;;8.68;4.40;;;;;;;2.29;100.00;100898.31;4947814;29;20102;-67
2021/11/17 09:30:04;;;;;;;11.15;4.80;;;;;;;2.35;100.00;100899.38;4927563;29;20187;-67
2021/11/17 09:33:00;;;;;;;15.18;4.90;;;;;;;2.54;100.00;100892.97;4945784;29;20054;-71
2021/11/17 09:35:48;;;;;;;10.15;5.82;;;;;;;2.57;100.00;100891.31;4941558;28;20424;-71
2021/11/17 09:38:34;;;;;;;12.68;6.07;;;;;;;2.18;100.00;100890.09;4909012;29;20074;-68
2021/11/17 09:41:31;;;;;;;9.95;5.80;;;;;;;2.22;100.00;100894.59;4930697;29;20055;-69
2021/11/17 09:44:33;;;;;;;11.68;5.57;;;;;;;2.29;100.00;100890.47;4941593;28;20530;-63
2021/11/17 09:47:22;;;;;;;11.50;6.45;;;;;;;2.34;100.00;100891.47;4942959;28;20102;-72
2021/11/17 09:50:25;;;;;;;16.38;6.82;;;;;;;2.49;100.00;100882.34;4951399;28;20058;-66
2021/11/17 09:53:12;;;;;;;11.13;5.65;;;;;;;2.22;100.00;100872.81;4941844;29;20093;-68
2021/11/17 09:56:05;;;;;;;12.73;6.00;;;;;;;2.42;100.00;100876.91;4930880;29;20106;-71
2021/11/17 09:59:01;;;;;;;11.85;5.20;;;;;;;2.56;100.00;100875.56;4940458;29;20468;-66
2021/11/17 10:01:49;;;;;;;8.98;4.22;;;;;;;2.38;100.00;100869.81;4941317;28;20050;-67
2021/11/17 10:04:38;;;;;;;10.07;4.63;;;;;;;2.42;100.00;100867.31;4951250;28;20050;-69
2021/11/17 10:13:39;;;;;;;10.18;4.70;;;;;;;2.44;100.00;100863.00;4941240;28;20082;-64
2021/11/17 10:16:25;;;;;;;7.05;4.85;;;;;;;2.39;100.00;100859.38;4937616;28;20058;-64
2021/11/17 10:19:25;;;;;;;10.18;4.82;;;;;;;2.34;100.00;100860.09;4936873;28;20688;-66
2021/11/17 10:22:19;;;;;;;7.65;4.68;;;;;;;2.47;100.00;100867.44;4957226;28;20146;-66
2021/11/17 10:25:12;;;;;;;11.82;5.07;;;;;;;2.74;100.00;100866.53;4937649;28;20110;-67
2021/11/17 10:28:02;;;;;;;12.32;4.95;;;;;;;2.76;100.00;100863.94;4953460;28;20066;-66
2021/11/17 10:31:03;;;;;;;9.68;4.95;;;;;;;2.75;100.00;100859.53;4950965;28;20410;-64
2021/11/17 10:34:12;;;;;;;7.78;4.78;;;;;;;2.89;100.00;100863.44;4925974;29;20098;-63
2021/11/17 10:37:09;;;;;;;10.35;5.18;;;;;;;2.84;100.00;100858.06;4939791;28;20054;-69
2021/11/17 10:39:54;;;;;;;9.77;4.80;;;;;;;2.76;100.00;100858.69;4932708;28;20050;-69
2021/11/17 10:42:41;;;;;;;12.93;4.38;;;;;;;2.91;100.00;100860.03;4939637;29;20106;-65
2021/11/17 10:45:32;;;;;;;9.43;3.67;;;;;;;3.05;100.00;100856.03;4941634;28;20050;-66
2021/11/17 10:48:32;;;;;;;12.40;3.97;;;;;;;3.15;100.00;100838.84;4954197;28;20067;-67
2021/11/17 10:51:21;;;;;;;8.40;3.65;;;;;;;3.08;100.00;100845.66;4938293;28;20194;-66
2021/11/17 10:54:11;;;;;;;12.40;4.18;;;;;;;3.07;100.00;100845.59;4948157;28;21035;-65
2021/11/17 10:57:16;;;;;;;14.80;5.20;;;;;;;3.36;100.00;100848.16;4937544;29;20081;-71
2021/11/17 11:00:06;;;;;;;13.30;4.60;;;;;;;3.22;100.00;100852.16;4939568;28;20047;-66
2021/11/17 11:02:55;;;;;;;8.23;4.22;;;;;;;3.34;100.00;100839.38;4939278;29;20054;-74
2021/11/17 11:05:52;;;;;;;7.63;4.03;;;;;;;3.48;100.00;100847.59;4935979;28;20067;-65
2021/11/17 11:09:06;;;;;;;5.97;3.67;;;;;;;3.38;100.00;100835.97;4955617;28;20469;-67
2021/11/17 11:11:54;;;;;;;12.82;3.80;;;;;;;3.32;100.00;100843.66;4938566;29;20149;-76
2021/11/17 11:14:46;;;;;;;13.98;4.10;;;;;;;3.38;100.00;100846.47;4924260;29;20053;-72
2021/11/17 11:17:34;;;;;;;10.27;3.90;;;;;;;3.38;100.00;100840.31;4950167;28;20108;-66
2021/11/17 11:20:20;;;;;;;9.82;3.80;;;;;;;3.34;100.00;100834.13;4952774;28;20062;-64
2021/11/17 11:23:06;;;;;;;12.77;4.32;;;;;;;3.48;100.00;100844.97;4938976;28;20093;-57
2021/11/17 11:26:12;;;;;;;15.02;3.72;;;;;;;3.69;100.00;100837.63;4939218;28;20066;-70
2021/11/17 11:29:01;;;;;;;20.90;4.57;;;;;;;3.68;100.00;100841.09;4939723;28;20110;-69
2021/11/17 11:31:50;;;;;;;14.85;4.47;;;;;;;3.85;100.00;100845.91;4945043;28;20053;-64
2021/11/17 11:34:38;;;;;;;19.95;4.50;;;;;;;3.96;100.00;100847.03;4929966;29;20122;-63
2021/11/17 11:37:23;;;;;;;5.70;3.60;;;;;;;4.14;100.00;100842.22;4954829;28;20109;-64
2021/11/17 11:40:49;;;;;;;12.60;4.82;;;;;;;4.28;100.00;100839.91;4949310;28;20051;-65
2021/11/17 11:43:35;;;;;;;14.20;4.78;;;;;;;4.17;100.00;100838.75;4943798;28;20069;-67
2021/11/17 11:46:26;;;;;;;17.80;4.55;;;;;;;4.24;100.00;100836.28;4947260;28;20193;-65
2021/11/17 11:49:41;;;;;;;16.48;4.55;;;;;;;4.37;100.00;100830.47;4958132;28;20057;-65
2021/11/17 11:52:38;;;;;;;12.88;4.25;;;;;;;4.33;100.00;100839.16;4941226;28;20086;-66
2021/11/17 11:55:23;;;;;;;12.73;5.00;;;;;;;4.30;100.00;100843.41;4938498;28;20290;-66
2021/11/17 11:58:33;;;;;;;21.00;4.65;;;;;;;4.42;100.00;100847.22;4931102;28;20550;-65
2021/11/17 12:01:25;;;;;;;29.08;5.20;;;;;;;4.48;100.00;100851.72;4933812;28;20062;-66
2021/11/17 12:04:21;;;;;;;10.73;4.72;;;;;;;4.55;100.00;100848.38;4936497;28;20055;-66
2021/11/17 12:07:08;;;;;;;;;;;;;;;4.52;100.00;100843.91;4931644;28;20153;-64
2021/11/17 12:10:33;;;;;;;17.77;5.43;;;;;;;4.60;100.00;100851.97;4933353;28;20310;-66
2021/11/17 12:13:26;;;;;;;18.25;5.38;;;;;;;4.59;100.00;100844.94;4932451;28;20748;-65
2021/11/17 12:16:21;;;;;;;16.35;6.32;;;;;;;4.53;100.00;100844.81;4922285;29;20491;-72
2021/11/17 12:19:30;;;;;;;14.20;5.20;;;;;;;4.65;100.00;100834.56;4937104;29;20186;-71
2021/11/17 12:22:41;;;;;;;18.15;4.97;;;;;;;4.69;100.00;100834.66;4938941;28;20050;-66
2021/11/17 12:25:31;;;;;;;17.75;5.18;;;;;;;4.76;100.00;100838.28;4939688;28;20054;-67
2021/11/17 12:28:18;;;;;;;19.35;5.68;;;;;;;4.77;100.00;100826.91;4931471;28;20075;-63
2021/11/17 12:31:11;;;;;;;24.42;6.38;;;;;;;4.90;100.00;100828.94;4934677;28;20045;-68
2021/11/17 12:34:11;;;;;;;13.57;6.85;;;;;;;4.78;100.00;100833.94;4942345;28;20055;-60
2021/11/17 12:37:20;;;;;;;28.42;7.18;;;;;;;4.50;100.00;100834.22;4944669;28;20051;-64
2021/11/17 12:40:11;;;;;;;19.92;6.45;;;;;;;4.32;100.00;100831.22;4944768;28;20054;-62
2021/11/17 12:42:58;;;;;;;14.50;6.57;;;;;;;4.38;100.00;100839.22;4947246;28;20050;-64
2021/11/17 12:46:04;;;;;;;28.35;8.50;;;;;;;4.62;100.00;100834.47;4978009;28;20066;-62
2021/11/17 12:49:13;;;;;;;18.75;7.97;;;;;;;4.75;100.00;100836.53;4965031;28;20046;-63
2021/11/17 12:52:27;;;;;;;34.92;8.95;;;;;;;4.75;100.00;100844.41;4925742;29;20077;-68
2021/11/17 12:55:12;;;;;;;10.40;5.57;;;;;;;4.08;100.00;100842.06;4898956;29;20084;-66
2021/11/17 12:58:34;;;;;;;13.48;5.55;;;;;;;3.62;100.00;100846.19;4918347;29;20054;-64
2021/11/17 13:01:35;;;;;;;17.33;5.45;;;;;;;2.99;100.00;100845.41;4909341;29;21050;-63
2021/11/17 13:04:35;;;;;;;9.00;5.45;;;;;;;2.91;100.00;100843.41;4918346;29;20107;-65
2021/11/17 13:07:47;;;;;;;13.85;5.57;;;;;;;2.87;100.00;100845.06;4896594;29;20063;-66
2021/11/17 13:10:44;;;;;;;10.52;5.28;;;;;;;2.64;100.00;100840.03;4921675;29;20088;-60
2021/11/17 13:13:38;;;;;;;13.52;5.00;;;;;;;2.44;100.00;100849.03;4927466;29;20058;-66
2021/11/17 13:16:44;;;;;;;12.15;5.20;;;;;;;2.32;100.00;100843.44;4912546;29;20197;-63
2021/11/17 13:19:30;;;;;;;;;;;;;;;2.30;100.00;100842.53;4906944;29;20058;-64
2021/11/17 13:22:27;;;;;;;11.10;5.68;;;;;;;2.24;100.00;100843.22;4932243;28;19964;-64
2021/11/17 13:25:23;;;;;;;13.57;6.18;;;;;;;2.08;100.00;100840.09;4935725;28;20103;-63
2021/11/17 13:28:35;;;;;;;14.45;5.80;;;;;;;2.11;100.00;100838.47;4918709;29;20424;-64
2021/11/17 13:31:36;;;;;;;10.63;4.75;;;;;;;2.08;100.00;100827.00;4956245;28;20090;-62
2021/11/17 13:34:31;;;;;;;15.25;5.00;;;;;;;2.06;100.00;100836.56;4941656;28;20160;-60
2021/11/17 13:37:39;;;;;;;19.85;6.10;;;;;;;2.05;100.00;100824.31;4943989;28;20097;-62
2021/11/17 13:40:25;;;;;;;12.60;5.63;;;;;;;1.99;100.00;100825.00;4951073;28;20477;-63
2021/11/17 13:43:11;;;;;;;17.80;6.25;;;;;;;2.03;100.00;100820.75;4934369;28;20062;-61
2021/11/17 13:45:58;;;;;;;15.93;5.95;;;;;;;2.10;100.00;100817.50;4930341;29;20578;-68
2021/11/17 13:48:44;;;;;;;15.38;5.85;;;;;;;2.07;100.00;100818.28;4944492;28;20565;-62
2021/11/17 13:51:29;;;;;;;14.07;5.70;;;;;;;2.14;100.00;100819.34;4943105;28;20057;-63
2021/11/17 13:54:15;;;;;;;18.05;5.50;;;;;;;2.33;100.00;100819.94;4955326;28;20054;-62
2021/11/17 13:57:04;;;;;;;16.38;6.00;;;;;;;2.39;100.00;100821.84;4923309;29;20062;-65
2021/11/17 13:59:50;;;;;;;14.25;5.35;;;;;;;2.43;100.00;100813.25;4948602;28;20484;-70
2021/11/17 14:02:34;;;;;;;19.65;5.40;;;;;;;2.54;100.00;100823.16;4933817;28;20045;-66
2021/11/17 14:05:20;;;;;;;16.52;6.22;;;;;;;2.44;100.00;100815.00;4944588;28;20062;-63
2021/11/17 14:08:07;;;;;;;26.27;5.68;;;;;;;2.61;100.00;100812.03;4943980;28;20054;-64
2021/11/17 14:10:52;;;;;;;18.88;5.85;;;;;;;2.54;100.00;100815.31;4942047;29;20066;-64
2021/11/17 14:13:38;;;;;;;22.77;6.38;;;;;;;2.40;100.00;100813.16;4944684;28;20074;-63
2021/11/17 14:16:23;;;;;;;15.55;5.93;;;;;;;2.39;100.00;100812.28;4938775;29;20154;-63
2021/11/17 14:19:08;;;;;;;11.93;5.50;;;;;;;2.23;100.00;100817.91;4943817;28;20062;-66
2021/11/17 14:21:54;;;;;;;14.85;6.50;;;;;;;2.33;100.00;100812.09;4948379;28;20529;-67
2021/11/17 14:24:39;;;;;;;12.85;6.15;;;;;;;2.30;100.00;100818.97;4937357;28;20134;-63
2021/11/17 14:27:25;;;;;;;14.95;5.85;;;;;;;2.17;100.00;100824.69;4962645;28;20054;-61
2021/11/17 14:30:28;;;;;;;18.33;6.60;;;;;;;2.32;100.00;100827.72;4957897;28;20051;-64
2021/11/17 14:33:17;;;;;;;17.13;5.80;;;;;;;2.10;100.00;100820.97;4940690;28;20050;-64
2021/11/17 14:36:06;;;;;;;13.35;5.47;;;;;;;2.07;100.00;100815.69;4945383;28;20102;-62
2021/11/17 14:38:53;;;;;;;9.60;5.50;;;;;;;2.17;100.00;100814.22;4946849;28;20057;-62
2021/11/17 14:41:38;;;;;;;14.23;5.68;;;;;;;2.07;100.00;100817.38;4929706;28;20974;-63
2021/11/17 14:44:22;;;;;;;15.73;6.32;;;;;;;2.19;100.00;100809.91;4946635;28;20467;-62
2021/11/17 14:47:11;;;;;;;13.90;5.65;;;;;;;2.19;100.00;100813.44;4956078;28;20109;-64
2021/11/17 14:49:56;;;;;;;12.13;5.57;;;;;;;1.97;100.00;100804.88;4936365;29;20431;-64
2021/11/17 14:52:42;;;;;;;17.08;5.50;;;;;;;2.19;100.00;100810.81;4946796;28;20054;-63
2021/11/17 14:55:28;;;;;;;14.75;5.85;;;;;;;2.27;100.00;100811.91;4943495;28;20057;-63
2021/11/17 14:58:12;;;;;;;17.88;6.45;;;;;;;2.22;100.00;100812.63;4947222;28;20058;-67
2021/11/17 15:01:00;;;;;;;20.88;7.53;;;;;;;2.21;100.00;100814.34;4958122;28;20078;-63
2021/11/17 15:03:47;;;;;;;17.45;6.20;;;;;;;2.15;100.00;100822.03;4929910;29;20603;-66
2021/11/17 15:06:36;;;;;;;19.73;6.97;;;;;;;2.18;100.00;100816.84;4960596;28;20134;-63
2021/11/17 15:09:21;;;;;;;19.83;5.80;;;;;;;2.16;100.00;100828.13;4936758;28;20050;-71
2021/11/17 15:12:21;;;;;;;14.90;6.90;;;;;;;2.08;100.00;100819.16;4928943;28;20066;-65
2021/11/17 15:15:11;;;;;;;18.95;6.78;;;;;;;1.95;100.00;100830.09;4932324;28;20798;-70
2021/11/17 15:17:57;;;;;;;18.05;5.57;;;;;;;1.94;100.00;100816.13;4958417;28;20543;-69
2021/11/17 15:20:44;;;;;;;16.77;6.38;;;;;;;2.05;100.00;100808.63;4947451;28;20049;-65
2021/11/17 15:23:31;;;;;;;;;;;;;;;2.25;100.00;100812.72;4931295;29;20424;-63
2021/11/17 15:26:17;;;;;;;21.70;5.88;;;;;;;2.11;100.00;100812.31;4956499;28;19929;-65
2021/11/17 15:29:04;;;;;;;21.70;6.60;;;;;;;2.22;100.00;100815.25;4956608;28;20093;-63
2021/11/17 15:31:49;;;;;;;16.25;5.18;;;;;;;2.17;100.00;100815.09;4954202;28;20055;-66
2021/11/17 15:34:35;;;;;;;13.85;4.70;;;;;;;2.22;100.00;100817.84;4932473;28;20468;-62
2021/11/17 15:37:21;;;;;;;13.65;5.18;;;;;;;2.06;100.00;100805.16;4953059;28;20189;-65
2021/11/17 15:40:11;;;;;;;15.27;5.72;;;;;;;2.15;100.00;100814.19;4939926;28;20097;-65
2021/11/17 15:42:59;;;;;;;14.27;4.95;;;;;;;2.05;100.00;100813.84;4944587;28;20114;-64
2021/11/17 15:45:44;;;;;;;14.35;4.93;;;;;;;2.01;100.00;100819.84;4944573;28;20078;-69
2021/11/17 15:48:35;;;;;;;21.60;5.30;;;;;;;2.12;100.00;100813.19;4943738;28;20058;-66
2021/11/17 15:51:36;;;;;;;19.77;5.07;;;;;;;2.20;100.00;100816.91;4928955;29;20074;-68
2021/11/17 15:54:23;;;;;;;17.73;5.30;;;;;;;2.14;100.00;100808.91;4955909;28;20062;-66
2021/11/17 15:57:09;;;;;;;20.25;5.35;;;;;;;1.98;100.00;100810.13;4947506;28;20495;-64
2021/11/17 15:59:53;;;;;;;16.80;4.72;;;;;;;2.02;100.00;100811.13;4943083;28;20550;-65
2021/11/17 16:02:41;;;;;;;13.30;5.20;;;;;;;2.01;100.00;100809.38;4931271;29;20146;-64
2021/11/17 16:05:27;;;;;;;14.70;5.13;;;;;;;2.00;100.00;100804.97;4943473;28;20888;-65
2021/11/17 16:08:20;;;;;;;18.75;5.53;;;;;;;2.06;100.00;100806.03;4939112;28;20073;-65
2021/11/17 16:11:06;;;;;;;21.63;6.00;;;;;;;2.11;100.00;100804.47;4952090;28;20097;-63
2021/11/17 16:13:54;;;;;;;24.70;5.40;;;;;;;2.10;100.00;100807.03;4936922;28;20528;-71
2021/11/17 16:16:40;;;;;;;14.23;5.68;;;;;;;2.12;100.00;100808.84;4952904;28;20114;-66
2021/11/17 16:19:29;;;;;;;15.45;4.72;;;;;;;2.22;100.00;100810.88;4930604;28;20058;-63
2021/11/17 16:22:19;;;;;;;26.45;5.68;;;;;;;2.19;100.00;100812.53;4942708;28;20118;-65
2021/11/17 16:28:29;;;;;;;16.02;4.88;;;;;;;2.17;100.00;100812.47;4938929;28;20051;-64
2021/11/17 16:31:19;;;;;;;13.90;5.80;;;;;;;2.19;100.00;100818.66;4938685;28;20078;-65
2021/11/17 16:34:10;;;;;;;19.83;5.07;;;;;;;2.31;100.00;100813.78;4934365;29;20139;-66
2021/11/17 16:36:57;;;;;;;14.90;5.00;;;;;;;2.40;100.00;100814.03;4939449;28;20066;-65
2021/11/17 16:39:44;;;;;;;12.07;5.10;;;;;;;2.32;100.00;100817.25;4938294;28;20105;-62
2021/11/17 16:42:31;;;;;;;16.25;5.82;;;;;;;2.44;100.00;100810.66;4954465;28;20105;-66
2021/11/17 16:45:19;;;;;;;11.75;5.35;;;;;;;2.45;100.00;100815.06;4913177;29;20070;-61
2021/11/17 16:48:06;;;;;;;10.07;4.53;;;;;;;2.41;100.00;100817.56;4952728;28;20126;-66
2021/11/17 16:50:52;;;;;;;14.85;5.32;;;;;;;2.48;100.00;100820.38;4925152;29;20055;-62